Time;durP1;ratioP1;P1;durP2;ratioP2;P2;SDS_P1;SDS_P2;PMS_P1;PMS_P2;Temp;Humidity;BMP_temperature;BMP_pressure;BME280_temperature;BME280_humidity;BME280_pressure;Samples;Min_cycle;Max_cycle;Signal;HPM_P1;HPM_P2
2024/01/19 00:01:05;;;;;;;21.50;4.85;;;1.40;99.90;;;;;;5070868;28;20027;-73
2024/01/19 00:03:31;;;;;;;12.40;4.47;;;1.30;99.90;;;;;;5070706;28;20424;-73
2024/01/19 00:05:56;;;;;;;20.58;4.88;;;1.30;99.90;;;;;;5069867;28;20376;-73
2024/01/19 00:08:22;;;;;;;13.73;4.32;;;1.30;99.90;;;;;;5070046;28;20063;-73
2024/01/19 00:10:47;;;;;;;19.40;4.97;;;1.30;99.90;;;;;;5070469;28;20149;-72
2024/01/19 00:13:13;;;;;;;17.35;4.68;;;1.40;99.90;;;;;;5070428;28;20020;-72
2024/01/19 00:15:39;;;;;;;22.75;4.95;;;1.40;99.90;;;;;;5069699;28;20021;-72
2024/01/19 00:18:04;;;;;;;15.63;4.78;;;1.30;99.90;;;;;;5070385;28;20515;-73
2024/01/19 00:20:30;;;;;;;14.45;4.63;;;1.30;99.90;;;;;;5070385;28;20024;-72
2024/01/19 00:22:56;;;;;;;14.25;4.82;;;1.20;99.90;;;;;;5069743;28;20147;-73
2024/01/19 00:25:21;;;;;;;16.35;3.85;;;1.20;99.90;;;;;;5069970;28;20029;-73
2024/01/19 00:27:47;;;;;;;20.17;4.22;;;1.20;99.90;;;;;;5070210;28;20032;-71
2024/01/19 00:30:13;;;;;;;16.77;4.95;;;1.30;99.90;;;;;;5070352;28;20028;-72
2024/01/19 00:32:38;;;;;;;16.30;4.45;;;1.30;99.90;;;;;;5070201;28;20029;-72
2024/01/19 00:35:04;;;;;;;15.77;4.70;;;1.30;99.90;;;;;;5069220;28;20083;-72
2024/01/19 00:37:30;;;;;;;11.93;4.00;;;1.30;99.90;;;;;;5070423;28;20027;-72
2024/01/19 00:39:55;;;;;;;22.40;4.25;;;1.30;99.90;;;;;;5070451;28;20103;-72
2024/01/19 00:42:21;;;;;;;15.50;4.43;;;1.20;99.90;;;;;;5070186;28;20040;-72
2024/01/19 00:44:46;;;;;;;21.98;4.25;;;1.20;99.90;;;;;;5072167;28;20029;-72
2024/01/19 00:47:12;;;;;;;13.77;4.32;;;1.20;99.90;;;;;;5076061;28;20025;-72
2024/01/19 00:49:37;;;;;;;13.38;4.28;;;1.10;99.90;;;;;;5080335;28;20024;-73
2024/01/19 00:52:03;;;;;;;17.42;4.30;;;1.10;99.90;;;;;;5083974;28;20024;-73
2024/01/19 00:54:29;;;;;;;8.38;3.30;;;1.10;99.90;;;;;;5083817;28;20032;-72
2024/01/19 00:56:55;;;;;;;8.55;3.30;;;1.00;99.90;;;;;;5082774;28;20102;-73
2024/01/19 00:59:20;;;;;;;12.15;3.65;;;1.10;99.90;;;;;;5083892;28;20028;-73
2024/01/19 01:01:46;;;;;;;7.72;3.20;;;1.00;99.90;;;;;;5083664;28;20032;-73
2024/01/19 01:04:12;;;;;;;10.52;3.35;;;1.00;99.90;;;;;;5085534;28;20025;-73
2024/01/19 01:06:37;;;;;;;11.30;3.60;;;1.00;99.90;;;;;;5084612;28;20016;-73
2024/01/19 01:09:03;;;;;;;9.90;3.13;;;1.00;99.90;;;;;;5085927;28;20021;-73
2024/01/19 01:11:29;;;;;;;9.95;3.33;;;1.10;99.90;;;;;;5083393;28;20032;-73
2024/01/19 01:13:55;;;;;;;9.10;3.05;;;1.10;99.90;;;;;;5075114;28;20029;-73
2024/01/19 01:16:21;;;;;;;7.95;3.28;;;1.00;99.90;;;;;;5075907;28;20079;-73
2024/01/19 01:18:46;;;;;;;10.73;3.70;;;1.10;99.90;;;;;;5077355;28;20025;-75
2024/01/19 01:21:12;;;;;;;8.48;3.13;;;1.20;99.90;;;;;;5076273;28;20039;-73
2024/01/19 01:23:38;;;;;;;8.75;2.95;;;1.20;99.90;;;;;;5075382;28;20040;-73
2024/01/19 01:26:03;;;;;;;9.10;2.65;;;1.30;99.90;;;;;;5072804;28;20020;-73
2024/01/19 01:28:29;;;;;;;11.65;2.75;;;1.30;99.90;;;;;;5075165;28;20372;-75
2024/01/19 01:30:55;;;;;;;8.38;2.60;;;1.30;99.90;;;;;;5072703;28;20032;-75
2024/01/19 01:33:20;;;;;;;9.18;2.83;;;1.30;99.90;;;;;;5073239;28;20024;-74
2024/01/19 01:35:46;;;;;;;11.00;2.70;;;1.30;99.90;;;;;;5089949;28;20032;-73
2024/01/19 01:38:12;;;;;;;13.07;3.00;;;1.20;99.90;;;;;;5093560;28;20024;-74
2024/01/19 01:40:37;;;;;;;6.88;3.00;;;1.20;99.90;;;;;;5092753;28;20034;-74
2024/01/19 01:43:05;;;;;;;11.75;3.10;;;1.20;99.90;;;;;;5093910;28;20024;-74
2024/01/19 01:45:30;;;;;;;13.25;3.53;;;1.10;99.90;;;;;;5101326;28;20426;-76
2024/01/19 01:47:58;;;;;;;10.18;3.42;;;1.10;99.90;;;;;;5099019;28;20028;-75
2024/01/19 01:50:24;;;;;;;11.18;3.30;;;1.10;99.90;;;;;;5093191;28;20067;-74
2024/01/19 01:52:51;;;;;;;15.30;3.95;;;1.10;99.90;;;;;;5092773;28;20060;-75
2024/01/19 01:55:17;;;;;;;14.82;3.60;;;1.10;99.90;;;;;;5092317;28;20568;-75
2024/01/19 01:57:44;;;;;;;14.57;3.50;;;1.10;99.90;;;;;;5093233;28;20052;-74
2024/01/19 02:00:13;;;;;;;20.95;4.10;;;1.10;99.90;;;;;;5093883;28;20059;-72
2024/01/19 02:02:39;;;;;;;16.85;3.75;;;1.00;99.90;;;;;;5093192;28;20047;-75
2024/01/19 02:05:07;;;;;;;14.73;3.33;;;1.00;99.90;;;;;;5082482;28;20075;-75
2024/01/19 02:07:33;;;;;;;11.70;3.75;;;0.90;99.90;;;;;;5072940;28;20048;-74
2024/01/19 02:09:59;;;;;;;14.02;3.55;;;0.90;99.90;;;;;;5072639;28;20446;-74
2024/01/19 02:12:25;;;;;;;12.68;3.65;;;0.80;99.90;;;;;;5072604;28;20085;-74
2024/01/19 02:14:51;;;;;;;16.58;3.72;;;0.80;99.90;;;;;;5069247;28;20078;-73
2024/01/19 02:17:16;;;;;;;19.25;3.10;;;0.80;99.90;;;;;;5072439;28;20417;-73
2024/01/19 02:19:42;;;;;;;9.25;3.53;;;0.80;99.90;;;;;;5078107;28;20058;-74
2024/01/19 02:22:07;;;;;;;13.95;3.38;;;0.70;99.90;;;;;;5092759;28;20024;-73
2024/01/19 02:24:35;;;;;;;11.45;3.22;;;0.70;99.90;;;;;;5091966;28;20467;-74
2024/01/19 02:27:02;;;;;;;18.27;3.72;;;0.60;99.90;;;;;;5092069;28;20548;-74
2024/01/19 02:29:28;;;;;;;11.57;2.67;;;0.60;99.90;;;;;;5092232;28;20040;-73
2024/01/19 02:31:53;;;;;;;11.63;2.50;;;0.60;99.90;;;;;;5077383;28;20111;-74
2024/01/19 02:34:19;;;;;;;16.98;2.70;;;0.60;99.90;;;;;;5074199;28;20016;-73
2024/01/19 02:36:44;;;;;;;11.45;2.92;;;0.60;99.90;;;;;;5090822;28;20064;-74
2024/01/19 02:39:10;;;;;;;11.32;2.53;;;0.60;99.90;;;;;;5091949;28;20028;-73
2024/01/19 02:41:35;;;;;;;18.77;2.75;;;0.60;99.90;;;;;;5092298;28;20513;-72
2024/01/19 02:44:01;;;;;;;10.23;2.35;;;0.70;99.90;;;;;;5092282;28;20059;-73
2024/01/19 02:46:26;;;;;;;9.73;2.30;;;0.70;99.90;;;;;;5090957;28;20040;-74
2024/01/19 02:48:52;;;;;;;9.88;2.35;;;0.70;99.90;;;;;;5092192;28;20415;-72
2024/01/19 02:51:18;;;;;;;8.40;2.22;;;0.70;99.90;;;;;;5091749;28;20036;-73
2024/01/19 02:53:43;;;;;;;17.25;2.70;;;0.80;99.90;;;;;;5093017;28;20059;-74
2024/01/19 02:56:09;;;;;;;13.75;2.60;;;0.80;99.90;;;;;;5090908;28;20035;-73
2024/01/19 02:58:35;;;;;;;9.80;2.70;;;0.80;99.90;;;;;;5091750;28;20059;-74
2024/01/19 03:01:01;;;;;;;10.18;2.47;;;0.90;99.90;;;;;;5092976;28;20379;-73
2024/01/19 03:03:26;;;;;;;11.23;2.92;;;0.80;99.90;;;;;;5092918;28;20024;-73
2024/01/19 03:05:52;;;;;;;10.02;2.60;;;0.80;99.90;;;;;;5092085;28;20032;-74
2024/01/19 03:08:19;;;;;;;8.95;2.60;;;0.80;99.90;;;;;;5092981;28;20024;-75
2024/01/19 03:10:45;;;;;;;13.52;2.65;;;0.90;99.90;;;;;;5092310;28;20028;-73
2024/01/19 03:13:10;;;;;;;15.02;2.70;;;0.90;99.90;;;;;;5093832;28;20069;-73
2024/01/19 03:15:36;;;;;;;7.00;2.40;;;1.00;99.90;;;;;;5092986;28;20036;-73
2024/01/19 03:18:02;;;;;;;12.30;3.25;;;1.00;99.90;;;;;;5094577;28;20217;-73
2024/01/19 03:20:27;;;;;;;9.07;2.28;;;1.00;99.90;;;;;;5094012;28;20028;-73
2024/01/19 03:22:53;;;;;;;6.78;2.30;;;1.00;99.90;;;;;;5092273;28;20043;-73
2024/01/19 03:25:19;;;;;;;6.45;2.35;;;1.00;99.90;;;;;;5091602;28;20548;-73
2024/01/19 03:27:44;;;;;;;14.63;2.88;;;1.00;99.90;;;;;;5092669;28;20495;-74
2024/01/19 03:30:10;;;;;;;12.95;2.63;;;0.90;99.90;;;;;;5092210;28;20050;-74
2024/01/19 03:32:36;;;;;;;13.00;2.67;;;0.90;99.90;;;;;;5092873;28;20028;-74
2024/01/19 03:35:01;;;;;;;12.88;2.65;;;0.90;99.90;;;;;;5090383;28;20032;-74
2024/01/19 03:37:30;;;;;;;8.35;2.65;;;0.90;99.90;;;;;;5101086;28;20035;-74
2024/01/19 03:39:55;;;;;;;10.07;2.40;;;0.90;99.90;;;;;;5100450;28;20027;-73
2024/01/19 03:42:21;;;;;;;15.27;2.63;;;1.00;99.90;;;;;;5099574;28;20020;-73
2024/01/19 03:44:46;;;;;;;10.82;2.65;;;1.00;99.90;;;;;;5101473;28;20035;-73
2024/01/19 03:47:12;;;;;;;10.70;2.85;;;0.90;99.90;;;;;;5101708;28;20468;-73
2024/01/19 03:49:39;;;;;;;9.82;2.42;;;1.00;99.90;;;;;;5098580;28;20032;-73
2024/01/19 03:52:07;;;;;;;12.02;3.03;;;1.00;99.90;;;;;;5095242;28;20056;-73
2024/01/19 03:54:33;;;;;;;11.23;2.30;;;0.90;99.90;;;;;;5096988;28;20035;-73
2024/01/19 03:57:01;;;;;;;31.25;10.60;;;1.00;99.90;;;;;;5095117;28;20119;-74
2024/01/19 03:59:27;;;;;;;14.55;3.08;;;1.00;99.90;;;;;;5096637;28;20081;-73
2024/01/19 04:01:53;;;;;;;15.20;2.92;;;1.00;99.90;;;;;;5103777;28;20103;-74
2024/01/19 04:04:19;;;;;;;13.82;3.13;;;1.00;99.90;;;;;;5101685;28;20028;-73
2024/01/19 04:06:44;;;;;;;9.20;2.33;;;1.20;99.90;;;;;;5091547;28;20035;-76
2024/01/19 04:09:10;;;;;;;10.80;2.42;;;1.10;99.90;;;;;;5070683;28;20032;-76
2024/01/19 04:11:36;;;;;;;15.65;3.08;;;1.10;99.90;;;;;;5071399;28;20020;-76
2024/01/19 04:14:02;;;;;;;11.10;2.28;;;1.10;99.90;;;;;;5072752;28;20025;-77
2024/01/19 04:16:28;;;;;;;12.88;2.45;;;1.20;99.90;;;;;;5075191;28;20031;-79
2024/01/19 04:18:54;;;;;;;7.90;1.98;;;1.20;99.90;;;;;;5080001;28;21105;-77
2024/01/19 04:21:19;;;;;;;6.75;2.05;;;1.20;99.90;;;;;;5070489;28;20029;-76
2024/01/19 04:23:45;;;;;;;11.05;2.78;;;1.30;99.90;;;;;;5071820;28;20040;-77
2024/01/19 04:26:11;;;;;;;8.32;2.10;;;1.30;99.90;;;;;;5071853;28;20035;-78
2024/01/19 04:28:38;;;;;;;8.63;1.90;;;1.40;99.90;;;;;;5073319;28;20021;-72
2024/01/19 04:31:05;;;;;;;8.23;1.90;;;1.40;99.90;;;;;;5071451;28;20452;-73
2024/01/19 04:33:30;;;;;;;6.90;1.80;;;1.40;99.90;;;;;;5069838;28;20141;-72
2024/01/19 04:35:56;;;;;;;6.53;1.83;;;1.40;99.90;;;;;;5069449;28;20021;-73
2024/01/19 04:38:21;;;;;;;9.68;2.08;;;1.40;99.90;;;;;;5070553;28;20025;-73
2024/01/19 04:40:47;;;;;;;13.43;2.40;;;1.40;99.90;;;;;;5070197;28;20429;-73
2024/01/19 04:43:13;;;;;;;10.50;1.83;;;1.40;99.90;;;;;;5070415;28;20060;-73
2024/01/19 04:45:38;;;;;;;12.15;2.30;;;1.50;99.90;;;;;;5069803;28;20036;-73
2024/01/19 04:48:04;;;;;;;15.63;2.50;;;1.50;99.90;;;;;;5070032;28;20074;-74
2024/01/19 04:50:30;;;;;;;13.05;2.25;;;1.40;99.90;;;;;;5071287;28;20032;-74
2024/01/19 04:52:55;;;;;;;8.05;1.98;;;1.40;99.90;;;;;;5070653;28;20052;-74
2024/01/19 04:55:21;;;;;;;15.02;2.63;;;1.40;99.90;;;;;;5069278;28;20032;-74
2024/01/19 04:57:46;;;;;;;10.82;2.22;;;1.40;99.90;;;;;;5070180;28;20021;-77
2024/01/19 05:00:13;;;;;;;9.48;1.90;;;1.30;99.90;;;;;;5071700;28;20028;-74
2024/01/19 05:02:39;;;;;;;16.83;2.92;;;1.40;99.90;;;;;;5072583;28;20028;-74
2024/01/19 05:05:05;;;;;;;14.90;2.00;;;1.30;99.90;;;;;;5071841;28;20423;-74
2024/01/19 05:07:30;;;;;;;9.15;2.58;;;1.30;99.90;;;;;;5071705;28;20081;-73
2024/01/19 05:09:57;;;;;;;17.83;2.50;;;1.30;99.90;;;;;;5072391;28;20029;-74
2024/01/19 05:12:23;;;;;;;14.95;2.20;;;1.30;99.90;;;;;;5071861;28;20070;-74
2024/01/19 05:14:49;;;;;;;12.15;2.20;;;1.20;99.90;;;;;;5071721;28;20037;-74
2024/01/19 05:17:15;;;;;;;16.60;2.53;;;1.20;99.90;;;;;;5077143;28;20025;-75
2024/01/19 05:19:40;;;;;;;9.35;2.00;;;1.20;99.90;;;;;;5073613;28;20021;-73
2024/01/19 05:22:06;;;;;;;19.60;3.25;;;1.30;99.90;;;;;;5072945;28;20032;-74
2024/01/19 05:24:32;;;;;;;11.68;2.13;;;1.30;99.90;;;;;;5077640;28;20025;-75
2024/01/19 05:26:57;;;;;;;12.13;2.15;;;1.30;99.90;;;;;;5076921;28;20074;-75
2024/01/19 05:29:23;;;;;;;8.35;2.50;;;1.40;99.90;;;;;;5075179;28;20074;-74
2024/01/19 05:31:49;;;;;;;11.18;2.70;;;1.30;99.90;;;;;;5071383;28;20475;-74
2024/01/19 05:34:15;;;;;;;16.27;2.40;;;1.30;99.90;;;;;;5070949;28;20029;-74
2024/01/19 05:36:42;;;;;;;16.00;2.08;;;1.30;99.90;;;;;;5072768;28;20095;-73
2024/01/19 05:39:07;;;;;;;17.42;2.40;;;1.30;99.90;;;;;;5072905;28;20383;-74
2024/01/19 05:41:34;;;;;;;11.70;2.65;;;1.30;99.90;;;;;;5078417;28;20100;-76
2024/01/19 05:44:00;;;;;;;8.57;2.35;;;1.30;99.90;;;;;;5088137;28;20035;-77
2024/01/19 05:46:26;;;;;;;10.88;2.80;;;1.20;99.90;;;;;;5087526;28;20527;-75
2024/01/19 05:48:51;;;;;;;10.30;3.13;;;1.10;99.90;;;;;;5076674;28;20093;-74
2024/01/19 05:51:18;;;;;;;12.55;2.42;;;1.10;99.90;;;;;;5075291;28;20151;-75
2024/01/19 05:53:44;;;;;;;17.95;2.03;;;1.10;99.90;;;;;;5081662;28;20032;-74
2024/01/19 05:56:09;;;;;;;12.60;2.25;;;1.10;99.90;;;;;;5081931;28;20036;-74
2024/01/19 05:58:35;;;;;;;10.93;2.20;;;1.20;99.90;;;;;;5083212;28;20025;-73
2024/01/19 06:01:02;;;;;;;11.48;3.20;;;1.20;99.90;;;;;;5078962;28;20401;-76
2024/01/19 06:03:35;;;;;;;11.50;3.20;;;1.30;99.90;;;;;;5073188;28;20302;-73
2024/01/19 06:06:01;;;;;;;12.75;3.05;;;1.30;99.90;;;;;;5071843;28;20025;-74
2024/01/19 06:08:27;;;;;;;16.25;2.97;;;1.40;99.90;;;;;;5073030;28;20020;-77
2024/01/19 06:10:53;;;;;;;12.88;2.33;;;1.40;99.90;;;;;;5072599;28;20074;-74
2024/01/19 06:13:18;;;;;;;13.18;2.65;;;1.40;99.90;;;;;;5072372;28;20028;-74
2024/01/19 06:15:44;;;;;;;16.33;2.70;;;1.40;99.90;;;;;;5071650;28;20036;-75
2024/01/19 06:18:09;;;;;;;10.07;2.17;;;1.50;99.90;;;;;;5077772;28;20028;-73
2024/01/19 06:20:40;;;;;;;17.73;3.20;;;1.50;99.90;;;;;;5083234;28;20055;-75
2024/01/19 06:23:07;;;;;;;10.32;2.72;;;1.50;99.90;;;;;;5076192;28;20048;-75
2024/01/19 06:25:34;;;;;;;18.77;3.08;;;1.50;99.90;;;;;;5076191;28;20503;-76
2024/01/19 06:27:59;;;;;;;11.30;2.97;;;1.70;99.90;;;;;;5072876;28;20050;-75
2024/01/19 06:30:25;;;;;;;15.68;2.75;;;1.60;99.90;;;;;;5074862;28;20070;-75
2024/01/19 06:32:51;;;;;;;12.25;2.40;;;1.50;99.90;;;;;;5074829;28;20024;-74
2024/01/19 06:35:17;;;;;;;14.88;2.10;;;1.60;99.90;;;;;;5074416;28;20035;-74
2024/01/19 06:37:42;;;;;;;8.10;1.75;;;1.50;99.90;;;;;;5078769;28;20017;-75
2024/01/19 06:40:10;;;;;;;11.43;2.45;;;1.40;99.90;;;;;;5074488;28;20039;-77
2024/01/19 06:42:36;;;;;;;12.40;2.80;;;1.40;99.90;;;;;;5071381;28;20019;-76
2024/01/19 06:45:03;;;;;;;9.40;2.33;;;1.40;99.90;;;;;;5068978;28;20035;-75
2024/01/19 06:47:28;;;;;;;14.50;2.00;;;1.40;99.90;;;;;;5071470;28;20039;-74
2024/01/19 06:49:54;;;;;;;14.43;2.80;;;1.30;99.90;;;;;;5071684;28;20016;-75
2024/01/19 06:52:20;;;;;;;14.57;3.13;;;1.30;99.90;;;;;;5073600;28;20028;-77
2024/01/19 06:54:45;;;;;;;15.75;2.38;;;1.40;99.90;;;;;;5074801;28;20039;-76
2024/01/19 06:57:11;;;;;;;19.52;3.53;;;1.40;99.90;;;;;;5071219;28;20024;-75
2024/01/19 06:59:36;;;;;;;14.55;3.85;;;1.40;99.90;;;;;;5070415;28;20086;-74
2024/01/19 07:02:02;;;;;;;9.13;2.50;;;1.40;99.90;;;;;;5071110;28;20467;-75
2024/01/19 07:04:27;;;;;;;10.70;2.92;;;1.40;99.90;;;;;;5071597;28;20029;-73
2024/01/19 07:06:53;;;;;;;15.10;3.10;;;1.40;99.90;;;;;;5070556;28;20539;-75
2024/01/19 07:09:19;;;;;;;19.00;4.22;;;1.40;99.90;;;;;;5069492;28;20036;-75
2024/01/19 07:11:45;;;;;;;13.68;2.60;;;1.30;99.90;;;;;;5071267;28;20519;-75
2024/01/19 07:14:10;;;;;;;16.10;2.47;;;1.30;99.90;;;;;;5068846;28;20033;-73
2024/01/19 07:16:43;;;;;;;10.98;2.72;;;1.30;99.90;;;;;;5070158;28;20008;-73
2024/01/19 07:19:10;;;;;;;13.25;4.00;;;1.30;99.90;;;;;;5072365;28;20025;-73
2024/01/19 07:21:37;;;;;;;23.85;3.85;;;1.30;99.90;;;;;;5075275;28;20028;-74
2024/01/19 07:24:04;;;;;;;16.60;2.80;;;1.30;99.90;;;;;;5071109;28;20093;-74
2024/01/19 07:26:30;;;;;;;12.57;3.08;;;1.40;99.90;;;;;;5074229;28;20020;-74
2024/01/19 07:28:56;;;;;;;13.93;3.00;;;1.30;99.90;;;;;;5076278;28;20036;-74
2024/01/19 07:31:21;;;;;;;10.93;2.72;;;1.30;99.90;;;;;;5074734;28;20016;-72
2024/01/19 07:33:47;;;;;;;12.93;2.85;;;1.30;99.90;;;;;;5071831;28;20438;-73
2024/01/19 07:36:15;;;;;;;19.00;3.13;;;1.30;99.90;;;;;;5071948;28;20056;-74
2024/01/19 07:38:41;;;;;;;17.15;3.33;;;1.30;99.90;;;;;;5072223;28;20044;-75
2024/01/19 07:41:07;;;;;;;17.60;3.13;;;1.20;99.90;;;;;;5072178;28;20035;-73
2024/01/19 07:43:32;;;;;;;14.93;2.55;;;1.30;99.90;;;;;;5071442;28;20032;-73
2024/01/19 07:45:58;;;;;;;19.23;3.20;;;1.30;99.90;;;;;;5073104;28;20032;-74
2024/01/19 07:48:26;;;;;;;11.55;3.13;;;1.40;99.90;;;;;;5073912;28;20032;-74
2024/01/19 07:50:52;;;;;;;21.20;2.78;;;1.40;99.90;;;;;;5073710;28;20029;-74
2024/01/19 07:53:17;;;;;;;17.05;3.45;;;1.40;99.90;;;;;;5072347;28;20028;-75
2024/01/19 07:55:43;;;;;;;22.27;4.25;;;1.40;99.90;;;;;;5071411;28;20112;-73
2024/01/19 07:58:08;;;;;;;17.00;3.90;;;1.40;99.90;;;;;;5071662;28;20025;-77
2024/01/19 08:00:34;;;;;;;19.90;3.20;;;1.50;99.90;;;;;;5070271;28;20447;-74
2024/01/19 08:03:00;;;;;;;20.27;3.28;;;1.50;99.90;;;;;;5073216;28;20086;-73
2024/01/19 08:05:26;;;;;;;19.63;2.90;;;1.50;99.90;;;;;;5076708;28;20021;-72
2024/01/19 08:07:52;;;;;;;17.05;3.53;;;1.50;99.90;;;;;;5075568;28;20032;-73
2024/01/19 08:10:19;;;;;;;20.17;3.65;;;1.40;99.90;;;;;;5072029;28;20400;-73
2024/01/19 08:12:44;;;;;;;16.25;2.88;;;1.40;99.90;;;;;;5072078;28;20334;-75
2024/01/19 08:15:10;;;;;;;22.92;3.55;;;1.40;99.90;;;;;;5071110;28;20361;-73
2024/01/19 08:17:36;;;;;;;13.13;3.08;;;1.30;99.90;;;;;;5071460;28;20027;-72
2024/01/19 08:20:02;;;;;;;20.63;3.65;;;1.30;99.90;;;;;;5071476;28;20406;-73
2024/01/19 08:22:27;;;;;;;19.45;3.17;;;1.30;99.90;;;;;;5071300;28;20012;-72
2024/01/19 08:24:53;;;;;;;14.30;3.03;;;1.40;99.90;;;;;;5071104;28;20032;-73
2024/01/19 08:27:18;;;;;;;26.52;3.80;;;1.50;99.90;;;;;;5071296;28;20024;-73
2024/01/19 08:29:47;;;;;;;16.48;3.55;;;1.50;99.90;;;;;;5071677;28;20020;-73
2024/01/19 08:32:13;;;;;;;23.63;3.95;;;1.50;99.90;;;;;;5071363;28;20036;-73
2024/01/19 08:34:39;;;;;;;14.90;3.58;;;1.50;99.90;;;;;;5071103;28;20040;-73
2024/01/19 08:37:05;;;;;;;16.15;2.80;;;1.60;99.90;;;;;;5092701;22;20014;-76
2024/01/19 08:39:30;;;;;;;21.98;3.55;;;1.60;99.90;;;;;;5052708;28;20033;-78
2024/01/19 08:41:56;;;;;;;16.90;3.33;;;1.60;99.90;;;;;;5052283;28;20343;-76
2024/01/19 08:44:22;;;;;;;14.70;3.30;;;1.70;99.90;;;;;;5051893;28;20067;-72
2024/01/19 08:46:48;;;;;;;23.35;3.95;;;1.70;99.90;;;;;;5051567;28;20363;-74
2024/01/19 08:49:14;;;;;;;18.15;2.75;;;1.80;99.90;;;;;;5052716;28;20028;-74
2024/01/19 08:51:40;;;;;;;15.35;2.78;;;2.00;99.90;;;;;;5052418;28;20029;-73
2024/01/19 08:54:06;;;;;;;14.10;2.92;;;2.30;99.90;;;;;;5052106;28;20021;-72
2024/01/19 08:56:32;;;;;;;12.25;2.28;;;2.60;99.90;;;;;;5051648;28;20490;-74
2024/01/19 08:58:58;;;;;;;16.45;2.50;;;3.10;99.90;;;;;;5051986;28;20017;-72
2024/01/19 09:01:24;;;;;;;18.83;2.78;;;3.50;99.90;;;;;;5055520;28;20024;-72
2024/01/19 09:03:50;;;;;;;18.50;2.38;;;3.90;99.80;;;;;;5054511;28;20104;-73
2024/01/19 09:06:15;;;;;;;14.60;2.50;;;4.40;95.30;;;;;;5051790;28;20024;-74
2024/01/19 09:08:44;;;;;;;18.17;2.72;;;4.80;91.20;;;;;;5051572;28;20032;-73
2024/01/19 09:11:11;;;;;;;14.60;2.58;;;5.30;83.10;;;;;;5055823;28;20017;-75
2024/01/19 09:13:40;;;;;;;22.75;3.63;;;5.70;69.20;;;;;;5055796;28;20028;-73
2024/01/19 09:16:10;;;;;;;17.35;2.95;;;6.20;48.50;;;;;;5055670;28;20491;-73
2024/01/19 09:18:38;;;;;;;12.02;2.30;;;6.30;31.50;;;;;;5055882;28;20025;-73
2024/01/19 09:21:04;;;;;;;11.80;2.45;;;5.80;38.40;;;;;;5055966;28;20017;-75
2024/01/19 09:23:30;;;;;;;19.00;4.07;;;5.00;69.70;;;;;;5055851;28;20024;-72
2024/01/19 09:25:56;;;;;;;13.30;2.72;;;4.50;90.80;;;;;;5055402;28;20033;-74
2024/01/19 09:28:22;;;;;;;13.43;2.72;;;4.10;95.80;;;;;;5055539;28;20079;-74
2024/01/19 09:30:48;;;;;;;14.80;2.50;;;3.90;98.60;;;;;;5055921;28;20406;-73
2024/01/19 09:33:14;;;;;;;13.65;2.75;;;3.50;97.00;;;;;;5055681;28;20472;-72
2024/01/19 09:35:40;;;;;;;28.52;3.85;;;3.40;97.60;;;;;;5054879;28;20033;-73
2024/01/19 09:38:06;;;;;;;20.15;4.07;;;3.30;99.30;;;;;;5055318;28;20171;-75
2024/01/19 09:40:32;;;;;;;13.98;3.05;;;3.00;99.90;;;;;;5055857;28;20056;-73
2024/01/19 09:42:58;;;;;;;29.42;3.25;;;2.90;99.90;;;;;;5054915;28;20025;-74
2024/01/19 09:45:30;;;;;;;18.67;2.53;;;2.80;99.90;;;;;;5054912;28;20501;-72
2024/01/19 09:48:21;;;;;;;24.05;3.28;;;2.90;99.90;;;;;;5055740;28;20025;-74
2024/01/19 09:50:50;;;;;;;18.58;2.42;;;3.00;99.90;;;;;;5055802;28;20025;-73
2024/01/19 09:53:27;;;;;;;21.77;2.78;;;3.10;99.90;;;;;;5055525;28;20025;-74
2024/01/19 09:55:53;;;;;;;23.35;5.95;;;3.40;99.90;;;;;;5053597;28;20020;-73
2024/01/19 09:58:22;;;;;;;26.60;3.10;;;3.60;99.90;;;;;;5055815;28;20021;-74
2024/01/19 10:00:50;;;;;;;19.40;3.03;;;3.70;99.90;;;;;;5056441;28;20033;-74
2024/01/19 10:03:17;;;;;;;19.27;3.30;;;3.80;99.90;;;;;;5057293;28;20039;-73
2024/01/19 10:05:43;;;;;;;18.02;2.90;;;3.60;99.90;;;;;;5055187;28;20048;-74
2024/01/19 10:08:12;;;;;;;20.08;2.70;;;3.50;99.90;;;;;;5055279;28;20457;-74
2024/01/19 10:10:42;;;;;;;22.85;3.10;;;3.50;99.90;;;;;;5061388;28;20043;-74
2024/01/19 10:13:07;;;;;;;25.73;3.83;;;3.50;99.90;;;;;;5062584;28;20048;-73
2024/01/19 10:15:33;;;;;;;17.52;2.55;;;3.40;99.90;;;;;;5063150;28;20025;-74
2024/01/19 10:18:00;;;;;;;25.17;3.88;;;3.40;99.90;;;;;;5063732;28;20096;-75
2024/01/19 10:20:26;;;;;;;18.67;3.58;;;3.40;99.90;;;;;;5055573;28;20029;-75
2024/01/19 10:22:51;;;;;;;17.92;2.97;;;3.40;99.90;;;;;;5057878;28;20031;-75
2024/01/19 10:25:18;;;;;;;24.23;3.50;;;3.40;99.80;;;;;;5061516;28;20088;-75
2024/01/19 10:27:45;;;;;;;25.80;3.50;;;3.30;99.90;;;;;;5059329;28;20037;-75
2024/01/19 10:30:30;;;;;;;17.05;2.72;;;3.30;99.90;;;;;;5054153;28;20028;-77
2024/01/19 10:33:06;;;;;;;26.33;3.17;;;3.40;99.90;;;;;;5054480;28;20025;-76
2024/01/19 10:35:32;;;;;;;19.10;3.58;;;3.40;99.20;;;;;;5057218;28;20074;-78
2024/01/19 10:38:06;;;;;;;22.00;3.55;;;3.50;98.50;;;;;;5056722;28;20086;-74
2024/01/19 10:40:36;;;;;;;23.20;4.28;;;3.60;97.70;;;;;;5054494;28;20029;-75
2024/01/19 10:43:03;;;;;;;23.70;4.63;;;3.70;98.20;;;;;;5054197;28;20486;-74
2024/01/19 10:45:30;;;;;;;20.95;4.55;;;3.80;93.20;;;;;;5054250;28;20115;-74
2024/01/19 10:47:59;;;;;;;27.00;3.70;;;3.90;92.40;;;;;;5059370;28;20017;-75
2024/01/19 10:50:26;;;;;;;27.63;3.00;;;3.90;90.70;;;;;;5065424;28;20475;-75
2024/01/19 10:52:53;;;;;;;23.13;4.05;;;3.90;89.70;;;;;;5061929;28;20545;-75
2024/01/19 10:55:23;;;;;;;20.27;4.03;;;4.00;88.50;;;;;;5053610;28;20470;-75
2024/01/19 10:57:54;;;;;;;20.77;3.65;;;4.00;91.20;;;;;;5053443;28;20017;-75
2024/01/19 11:00:25;;;;;;;26.33;4.05;;;4.10;90.70;;;;;;5052960;28;20036;-75
2024/01/19 11:02:56;;;;;;;20.42;3.42;;;4.30;83.20;;;;;;5053472;28;20475;-74
2024/01/19 11:05:23;;;;;;;18.88;3.35;;;4.40;81.40;;;;;;5051782;28;20433;-74
2024/01/19 11:08:02;;;;;;;19.85;3.70;;;4.30;77.30;;;;;;5053283;28;20116;-75
2024/01/19 11:10:29;;;;;;;17.92;3.55;;;4.10;83.70;;;;;;5053446;28;20345;-74
2024/01/19 11:12:57;;;;;;;18.20;3.35;;;4.10;86.10;;;;;;5054385;28;20035;-74
2024/01/19 11:15:36;;;;;;;21.98;3.10;;;4.00;90.40;;;;;;5053636;28;20032;-74
2024/01/19 11:18:04;;;;;;;28.52;3.35;;;3.90;92.50;;;;;;5052074;28;20570;-75
2024/01/19 11:20:31;;;;;;;30.25;3.53;;;3.90;93.50;;;;;;5051927;28;20394;-73
2024/01/19 11:22:57;;;;;;;20.50;3.47;;;3.80;96.90;;;;;;5051832;28;20039;-74
2024/01/19 11:25:35;;;;;;;22.73;3.05;;;3.70;98.40;;;;;;5051466;28;20098;-74
2024/01/19 11:28:34;;;;;;;19.98;3.60;;;3.60;99.90;;;;;;5051160;28;20029;-75
2024/01/19 11:31:17;;;;;;;25.90;4.93;;;3.60;99.90;;;;;;5052890;28;20124;-74
2024/01/19 11:33:43;;;;;;;15.55;3.38;;;3.60;99.90;;;;;;5053717;28;20415;-75
2024/01/19 11:36:09;;;;;;;24.67;3.22;;;3.50;99.90;;;;;;5051423;28;20048;-75
2024/01/19 11:38:45;;;;;;;19.98;3.35;;;3.60;99.90;;;;;;5051964;28;20032;-75
2024/01/19 11:41:33;;;;;;;19.30;3.30;;;3.30;99.90;;;;;;5054594;28;20032;-75
2024/01/19 11:44:03;;;;;;;18.27;3.03;;;3.30;99.90;;;;;;5051678;28;20025;-75
2024/01/19 11:46:45;;;;;;;21.33;4.00;;;3.20;99.90;;;;;;5049557;28;20032;-73
2024/01/19 11:49:34;;;;;;;23.42;5.07;;;3.20;99.90;;;;;;5056623;28;20080;-75
2024/01/19 11:52:02;;;;;;;25.55;4.20;;;3.20;99.90;;;;;;5051028;28;20021;-74
2024/01/19 11:54:32;;;;;;;11.13;3.03;;;3.20;99.90;;;;;;5051130;28;20025;-74
2024/01/19 11:57:19;;;;;;;19.52;3.75;;;3.20;99.90;;;;;;5050903;28;20103;-75
2024/01/19 11:59:45;;;;;;;16.52;3.80;;;3.20;99.90;;;;;;5051429;28;20031;-74
2024/01/19 12:02:30;;;;;;;13.55;3.33;;;3.10;99.90;;;;;;5052567;28;20047;-75
2024/01/19 12:04:59;;;;;;;16.85;4.32;;;3.10;99.90;;;;;;5050900;28;20419;-74
2024/01/19 12:07:25;;;;;;;21.35;4.38;;;3.00;99.90;;;;;;5052399;28;20029;-74
2024/01/19 12:10:09;;;;;;;20.48;4.72;;;2.90;99.90;;;;;;5057090;28;20510;-74
2024/01/19 12:12:35;;;;;;;17.40;3.28;;;3.00;99.90;;;;;;5056688;28;20047;-75
2024/01/19 12:15:03;;;;;;;13.55;2.80;;;3.00;99.90;;;;;;5055423;28;20032;-75
2024/01/19 12:17:29;;;;;;;15.93;2.63;;;3.00;99.90;;;;;;5055680;28;20043;-74
2024/01/19 12:19:55;;;;;;;16.23;2.90;;;3.00;99.90;;;;;;5051030;28;20480;-76
2024/01/19 12:22:21;;;;;;;10.57;3.45;;;3.00;99.90;;;;;;5051437;28;20017;-75
2024/01/19 12:24:46;;;;;;;10.32;3.83;;;3.10;99.90;;;;;;5048622;28;20029;-74
2024/01/19 12:27:20;;;;;;;18.52;6.00;;;3.10;99.90;;;;;;5050600;28;20467;-75
2024/01/19 12:29:45;;;;;;;12.75;2.95;;;3.30;99.90;;;;;;5050719;28;20479;-73
2024/01/19 12:32:18;;;;;;;16.55;3.20;;;3.30;99.90;;;;;;5050529;28;20078;-74
2024/01/19 12:34:57;;;;;;;10.50;2.50;;;3.30;99.90;;;;;;5050500;28;20025;-75
2024/01/19 12:37:24;;;;;;;10.38;4.05;;;3.30;99.90;;;;;;5051301;28;20017;-75
2024/01/19 12:39:49;;;;;;;9.27;2.47;;;3.40;99.90;;;;;;5051500;28;20025;-75
2024/01/19 12:42:15;;;;;;;11.52;2.47;;;3.40;99.90;;;;;;5050644;28;20022;-75
2024/01/19 12:44:41;;;;;;;10.43;2.67;;;3.40;99.90;;;;;;5053572;28;20025;-75
2024/01/19 12:47:07;;;;;;;8.48;1.92;;;3.40;99.90;;;;;;5054106;28;20417;-75